sensor_id;sensor_type;location;lat;lon;timestamp;pressure;altitude;pressure_sealevel;temperature
65765;BMP180;52915;53.718;19.946;2022-09-30T00:00:46;99742.80;;;5.40
65765;BMP180;52915;53.718;19.946;2022-09-30T00:06:09;99750.40;;;5.58
65765;BMP180;52915;53.718;19.946;2022-09-30T00:11:18;99749.80;;;5.50
65765;BMP180;52915;53.718;19.946;2022-09-30T00:16:25;99754.40;;;5.30
65765;BMP180;52915;53.718;19.946;2022-09-30T00:21:32;99755.40;;;5.20
65765;BMP180;52915;53.718;19.946;2022-09-30T00:26:36;99759.20;;;5.20
65765;BMP180;52915;53.718;19.946;2022-09-30T00:31:42;99767.20;;;5.30
65765;BMP180;52915;53.718;19.946;2022-09-30T00:36:53;99766.60;;;5.30
65765;BMP180;52915;53.718;19.946;2022-09-30T00:42:01;99770.40;;;5.20
65765;BMP180;52915;53.718;19.946;2022-09-30T00:47:39;99783.80;;;5.06
65765;BMP180;52915;53.718;19.946;2022-09-30T00:52:51;99788.80;;;5.10
65765;BMP180;52915;53.718;19.946;2022-09-30T00:57:56;99791.20;;;5.20
65765;BMP180;52915;53.718;19.946;2022-09-30T01:03:04;99798.00;;;5.10
65765;BMP180;52915;53.718;19.946;2022-09-30T01:08:10;99795.80;;;5.02
65765;BMP180;52915;53.718;19.946;2022-09-30T01:13:16;99793.20;;;4.96
65765;BMP180;52915;53.718;19.946;2022-09-30T01:18:49;99795.00;;;5.00
65765;BMP180;52915;53.718;19.946;2022-09-30T01:30:08;99806.40;;;5.30
65765;BMP180;52915;53.718;19.946;2022-09-30T01:40:57;99806.60;;;5.00
65765;BMP180;52915;53.718;19.946;2022-09-30T01:51:32;99789.60;;;5.16
65765;BMP180;52915;53.718;19.946;2022-09-30T01:56:48;99779.40;;;5.00
65765;BMP180;52915;53.718;19.946;2022-09-30T02:02:05;99780.40;;;4.80
65765;BMP180;52915;53.718;19.946;2022-09-30T02:07:20;99788.00;;;4.60
65765;BMP180;52915;53.718;19.946;2022-09-30T02:12:34;99803.40;;;4.70
65765;BMP180;52915;53.718;19.946;2022-09-30T02:17:50;99808.80;;;4.80
65765;BMP180;52915;53.718;19.946;2022-09-30T02:23:03;99811.40;;;4.90
65765;BMP180;52915;53.718;19.946;2022-09-30T02:28:22;99808.20;;;4.80
65765;BMP180;52915;53.718;19.946;2022-09-30T02:33:43;99807.20;;;4.92
65765;BMP180;52915;53.718;19.946;2022-09-30T02:39:17;99815.80;;;5.10
65765;BMP180;52915;53.718;19.946;2022-09-30T02:44:24;99806.00;;;5.00
65765;BMP180;52915;53.718;19.946;2022-09-30T02:49:48;99816.60;;;4.90
65765;BMP180;52915;53.718;19.946;2022-09-30T03:00:27;99832.80;;;5.20
65765;BMP180;52915;53.718;19.946;2022-09-30T03:05:32;99834.40;;;5.16
65765;BMP180;52915;53.718;19.946;2022-09-30T03:10:38;99835.20;;;5.00
65765;BMP180;52915;53.718;19.946;2022-09-30T03:21:41;99851.80;;;5.40
65765;BMP180;52915;53.718;19.946;2022-09-30T03:32:29;99877.60;;;5.20
65765;BMP180;52915;53.718;19.946;2022-09-30T03:48:30;99869.40;;;5.30
65765;BMP180;52915;53.718;19.946;2022-09-30T03:53:42;99874.80;;;5.10
65765;BMP180;52915;53.718;19.946;2022-09-30T03:58:49;99879.00;;;5.20
65765;BMP180;52915;53.718;19.946;2022-09-30T04:03:53;99879.60;;;5.20
65765;BMP180;52915;53.718;19.946;2022-09-30T04:08:57;99890.00;;;5.10
65765;BMP180;52915;53.718;19.946;2022-09-30T04:14:01;99880.60;;;4.90
65765;BMP180;52915;53.718;19.946;2022-09-30T04:19:06;99898.80;;;4.80
65765;BMP180;52915;53.718;19.946;2022-09-30T04:24:09;99902.40;;;5.00
65765;BMP180;52915;53.718;19.946;2022-09-30T04:29:14;99912.80;;;5.10
65765;BMP180;52915;53.718;19.946;2022-09-30T04:34:17;99908.40;;;5.00
65765;BMP180;52915;53.718;19.946;2022-09-30T04:39:21;99913.80;;;4.80
65765;BMP180;52915;53.718;19.946;2022-09-30T04:44:25;99926.80;;;4.80
65765;BMP180;52915;53.718;19.946;2022-09-30T04:49:30;99919.80;;;4.90
65765;BMP180;52915;53.718;19.946;2022-09-30T04:54:34;99920.60;;;4.90
65765;BMP180;52915;53.718;19.946;2022-09-30T04:59:39;99916.80;;;4.78
65765;BMP180;52915;53.718;19.946;2022-09-30T05:04:43;99921.20;;;4.70
65765;BMP180;52915;53.718;19.946;2022-09-30T05:09:47;99917.80;;;4.90
65765;BMP180;52915;53.718;19.946;2022-09-30T05:14:51;99921.40;;;5.00
65765;BMP180;52915;53.718;19.946;2022-09-30T05:19:56;99925.20;;;4.80
65765;BMP180;52915;53.718;19.946;2022-09-30T05:25:00;99927.20;;;4.70
65765;BMP180;52915;53.718;19.946;2022-09-30T05:30:07;99936.60;;;4.90
65765;BMP180;52915;53.718;19.946;2022-09-30T05:35:11;99943.20;;;5.20
65765;BMP180;52915;53.718;19.946;2022-09-30T05:40:15;99964.60;;;5.20
65765;BMP180;52915;53.718;19.946;2022-09-30T05:45:20;99962.20;;;5.10
65765;BMP180;52915;53.718;19.946;2022-09-30T05:50:25;99962.60;;;5.00
65765;BMP180;52915;53.718;19.946;2022-09-30T05:55:29;99959.80;;;5.20
65765;BMP180;52915;53.718;19.946;2022-09-30T06:00:43;99965.20;;;5.50
65765;BMP180;52915;53.718;19.946;2022-09-30T06:05:54;99967.20;;;5.60
65765;BMP180;52915;53.718;19.946;2022-09-30T06:10:59;99955.80;;;5.90
65765;BMP180;52915;53.718;19.946;2022-09-30T06:16:03;99958.40;;;6.36
65765;BMP180;52915;53.718;19.946;2022-09-30T06:21:12;99970.40;;;6.90
65765;BMP180;52915;53.718;19.946;2022-09-30T06:26:18;99971.20;;;7.36
65765;BMP180;52915;53.718;19.946;2022-09-30T06:31:23;99980.20;;;7.70
65765;BMP180;52915;53.718;19.946;2022-09-30T06:36:28;99986.80;;;7.98
65765;BMP180;52915;53.718;19.946;2022-09-30T06:41:33;100000.00;;;8.40
65765;BMP180;52915;53.718;19.946;2022-09-30T06:46:42;100000.00;;;8.88
65765;BMP180;52915;53.718;19.946;2022-09-30T06:51:56;100004.80;;;9.20
65765;BMP180;52915;53.718;19.946;2022-09-30T06:57:03;100015.40;;;9.40
65765;BMP180;52915;53.718;19.946;2022-09-30T07:02:10;100007.60;;;9.70
65765;BMP180;52915;53.718;19.946;2022-09-30T07:07:13;100017.60;;;10.38
65765;BMP180;52915;53.718;19.946;2022-09-30T07:12:18;100028.40;;;10.96
65765;BMP180;52915;53.718;19.946;2022-09-30T07:17:22;100035.60;;;11.40
65765;BMP180;52915;53.718;19.946;2022-09-30T07:22:26;100034.00;;;11.80
65765;BMP180;52915;53.718;19.946;2022-09-30T07:27:32;100037.80;;;12.20
65765;BMP180;52915;53.718;19.946;2022-09-30T07:32:36;100045.60;;;12.76
65765;BMP180;52915;53.718;19.946;2022-09-30T07:37:41;100053.60;;;12.90
65765;BMP180;52915;53.718;19.946;2022-09-30T07:42:45;100052.20;;;12.90
65765;BMP180;52915;53.718;19.946;2022-09-30T07:47:49;100058.40;;;13.00
65765;BMP180;52915;53.718;19.946;2022-09-30T07:52:56;100061.80;;;13.50
65765;BMP180;52915;53.718;19.946;2022-09-30T07:58:00;100066.60;;;14.10
65765;BMP180;52915;53.718;19.946;2022-09-30T08:03:04;100067.20;;;14.70
65765;BMP180;52915;53.718;19.946;2022-09-30T08:08:08;100086.00;;;15.10
65765;BMP180;52915;53.718;19.946;2022-09-30T08:13:12;100089.40;;;15.30
65765;BMP180;52915;53.718;19.946;2022-09-30T08:18:16;100094.60;;;15.58
65765;BMP180;52915;53.718;19.946;2022-09-30T08:23:20;100091.20;;;15.86
65765;BMP180;52915;53.718;19.946;2022-09-30T08:28:24;100092.00;;;16.30
65765;BMP180;52915;53.718;19.946;2022-09-30T08:33:28;100103.20;;;16.80
65765;BMP180;52915;53.718;19.946;2022-09-30T08:38:33;100109.40;;;16.90
65765;BMP180;52915;53.718;19.946;2022-09-30T08:44:13;100118.80;;;17.10
65765;BMP180;52915;53.718;19.946;2022-09-30T08:49:44;100124.80;;;16.90
65765;BMP180;52915;53.718;19.946;2022-09-30T08:54:54;100131.00;;;16.98
65765;BMP180;52915;53.718;19.946;2022-09-30T09:00:02;100136.20;;;16.80
65765;BMP180;52915;53.718;19.946;2022-09-30T09:10:50;100131.20;;;17.78
65765;BMP180;52915;53.718;19.946;2022-09-30T09:26:18;100146.20;;;17.74
65765;BMP180;52915;53.718;19.946;2022-09-30T09:31:24;100158.60;;;17.80
65765;BMP180;52915;53.718;19.946;2022-09-30T09:47:23;100155.20;;;17.00
65765;BMP180;52915;53.718;19.946;2022-09-30T09:57:46;100154.00;;;17.00
65765;BMP180;52915;53.718;19.946;2022-09-30T10:03:11;100155.40;;;16.86
65765;BMP180;52915;53.718;19.946;2022-09-30T10:08:21;100152.80;;;16.56
65765;BMP180;52915;53.718;19.946;2022-09-30T10:13:30;100153.40;;;16.50
65765;BMP180;52915;53.718;19.946;2022-09-30T10:18:37;100158.60;;;16.60
65765;BMP180;52915;53.718;19.946;2022-09-30T10:23:42;100159.80;;;16.80
65765;BMP180;52915;53.718;19.946;2022-09-30T10:28:59;100152.60;;;16.98
65765;BMP180;52915;53.718;19.946;2022-09-30T10:34:22;100152.00;;;17.00
65765;BMP180;52915;53.718;19.946;2022-09-30T10:39:38;100155.40;;;17.10
65765;BMP180;52915;53.718;19.946;2022-09-30T10:44:46;100155.40;;;17.46
65765;BMP180;52915;53.718;19.946;2022-09-30T10:50:07;100143.80;;;17.90
65765;BMP180;52915;53.718;19.946;2022-09-30T11:00:24;100144.80;;;19.30
65765;BMP180;52915;53.718;19.946;2022-09-30T11:05:44;100146.40;;;19.50
65765;BMP180;52915;53.718;19.946;2022-09-30T11:11:03;100144.80;;;19.80
65765;BMP180;52915;53.718;19.946;2022-09-30T11:17:26;100147.20;;;19.70
65765;BMP180;52915;53.718;19.946;2022-09-30T11:22:57;100138.80;;;19.40
65765;BMP180;52915;53.718;19.946;2022-09-30T11:28:22;100147.00;;;19.70
65765;BMP180;52915;53.718;19.946;2022-09-30T11:44:30;100135.20;;;19.90
65765;BMP180;52915;53.718;19.946;2022-09-30T11:49:55;100148.80;;;19.88
65765;BMP180;52915;53.718;19.946;2022-09-30T12:00:42;100134.00;;;19.30
65765;BMP180;52915;53.718;19.946;2022-09-30T12:05:57;100137.40;;;19.50
65765;BMP180;52915;53.718;19.946;2022-09-30T12:11:11;100157.60;;;20.10
65765;BMP180;52915;53.718;19.946;2022-09-30T12:16:24;100142.60;;;20.40
65765;BMP180;52915;53.718;19.946;2022-09-30T12:21:39;100145.00;;;20.60
65765;BMP180;52915;53.718;19.946;2022-09-30T12:26:45;100158.80;;;20.18
65765;BMP180;52915;53.718;19.946;2022-09-30T12:32:24;100153.40;;;19.04
65765;BMP180;52915;53.718;19.946;2022-09-30T12:38:01;100150.00;;;18.30
65765;BMP180;52915;53.718;19.946;2022-09-30T12:43:41;100146.00;;;18.10
65765;BMP180;52915;53.718;19.946;2022-09-30T12:49:18;100137.60;;;17.90
65765;BMP180;52915;53.718;19.946;2022-09-30T12:54:30;100137.40;;;17.70
65765;BMP180;52915;53.718;19.946;2022-09-30T12:59:49;100142.00;;;17.70
65765;BMP180;52915;53.718;19.946;2022-09-30T13:15:45;100129.00;;;18.40
65765;BMP180;52915;53.718;19.946;2022-09-30T13:37:02;100136.00;;;18.14
65765;BMP180;52915;53.718;19.946;2022-09-30T13:42:19;100137.20;;;17.60
65765;BMP180;52915;53.718;19.946;2022-09-30T13:47:42;100133.00;;;17.50
65765;BMP180;52915;53.718;19.946;2022-09-30T13:52:54;100134.00;;;17.30
65765;BMP180;52915;53.718;19.946;2022-09-30T14:03:52;100145.60;;;16.70
65765;BMP180;52915;53.718;19.946;2022-09-30T14:20:28;100159.20;;;15.80
65765;BMP180;52915;53.718;19.946;2022-09-30T14:25:44;100158.60;;;15.40
65765;BMP180;52915;53.718;19.946;2022-09-30T14:31:01;100168.00;;;15.30
65765;BMP180;52915;53.718;19.946;2022-09-30T14:36:20;100164.40;;;15.20
65765;BMP180;52915;53.718;19.946;2022-09-30T14:41:38;100167.40;;;15.10
65765;BMP180;52915;53.718;19.946;2022-09-30T14:46:58;100167.80;;;14.90
65765;BMP180;52915;53.718;19.946;2022-09-30T14:52:42;100173.00;;;14.70
65765;BMP180;52915;53.718;19.946;2022-09-30T14:58:29;100174.20;;;14.60
65765;BMP180;52915;53.718;19.946;2022-09-30T15:03:43;100162.60;;;14.58
65765;BMP180;52915;53.718;19.946;2022-09-30T15:09:03;100162.40;;;14.60
65765;BMP180;52915;53.718;19.946;2022-09-30T15:20:38;100165.80;;;14.60
65765;BMP180;52915;53.718;19.946;2022-09-30T15:25:56;100175.00;;;14.60
65765;BMP180;52915;53.718;19.946;2022-09-30T15:31:33;100162.40;;;15.06
65765;BMP180;52915;53.718;19.946;2022-09-30T15:37:23;100158.00;;;17.00
65765;BMP180;52915;53.718;19.946;2022-09-30T15:42:58;100176.60;;;17.72
65765;BMP180;52915;53.718;19.946;2022-09-30T15:59:12;100195.80;;;15.40
65765;BMP180;52915;53.718;19.946;2022-09-30T16:04:24;100199.20;;;15.00
65765;BMP180;52915;53.718;19.946;2022-09-30T16:09:46;100199.60;;;14.62
65765;BMP180;52915;53.718;19.946;2022-09-30T16:15:44;100203.00;;;14.30
65765;BMP180;52915;53.718;19.946;2022-09-30T16:21:04;100205.20;;;14.10
65765;BMP180;52915;53.718;19.946;2022-09-30T16:26:19;100210.40;;;13.90
65765;BMP180;52915;53.718;19.946;2022-09-30T16:31:54;100214.40;;;13.60
65765;BMP180;52915;53.718;19.946;2022-09-30T16:37:22;100217.40;;;13.40
65765;BMP180;52915;53.718;19.946;2022-09-30T16:42:39;100214.60;;;13.40
65765;BMP180;52915;53.718;19.946;2022-09-30T16:47:58;100218.60;;;13.40
65765;BMP180;52915;53.718;19.946;2022-09-30T16:53:14;100219.20;;;13.26
65765;BMP180;52915;53.718;19.946;2022-09-30T16:58:41;100215.20;;;13.00
65765;BMP180;52915;53.718;19.946;2022-09-30T17:03:58;100224.20;;;12.80
65765;BMP180;52915;53.718;19.946;2022-09-30T17:09:32;100225.40;;;12.60
65765;BMP180;52915;53.718;19.946;2022-09-30T17:14:53;100227.00;;;12.54
65765;BMP180;52915;53.718;19.946;2022-09-30T17:20:13;100226.80;;;12.60
65765;BMP180;52915;53.718;19.946;2022-09-30T17:25:26;100231.80;;;12.50
65765;BMP180;52915;53.718;19.946;2022-09-30T17:30:59;100230.80;;;12.30
65765;BMP180;52915;53.718;19.946;2022-09-30T17:42:04;100232.80;;;12.00
65765;BMP180;52915;53.718;19.946;2022-09-30T17:47:53;100232.60;;;12.00
65765;BMP180;52915;53.718;19.946;2022-09-30T17:53:26;100232.60;;;11.72
65765;BMP180;52915;53.718;19.946;2022-09-30T17:58:52;100232.40;;;11.44
65765;BMP180;52915;53.718;19.946;2022-09-30T18:04:17;100231.60;;;11.20
65765;BMP180;52915;53.718;19.946;2022-09-30T18:09:37;100229.20;;;11.20
65765;BMP180;52915;53.718;19.946;2022-09-30T18:14:55;100237.00;;;11.20
65765;BMP180;52915;53.718;19.946;2022-09-30T18:20:28;100233.80;;;11.10
65765;BMP180;52915;53.718;19.946;2022-09-30T18:26:07;100234.80;;;10.82
65765;BMP180;52915;53.718;19.946;2022-09-30T18:31:45;100237.80;;;10.60
65765;BMP180;52915;53.718;19.946;2022-09-30T18:37:04;100228.00;;;10.40
65765;BMP180;52915;53.718;19.946;2022-09-30T18:42:16;100224.40;;;10.30
65765;BMP180;52915;53.718;19.946;2022-09-30T18:48:10;100228.00;;;10.38
65765;BMP180;52915;53.718;19.946;2022-09-30T18:53:37;100233.20;;;10.40
65765;BMP180;52915;53.718;19.946;2022-09-30T18:59:12;100237.00;;;10.30
65765;BMP180;52915;53.718;19.946;2022-09-30T19:04:26;100227.60;;;10.06
65765;BMP180;52915;53.718;19.946;2022-09-30T19:09:51;100222.20;;;9.80
65765;BMP180;52915;53.718;19.946;2022-09-30T19:15:20;100218.20;;;9.80
65765;BMP180;52915;53.718;19.946;2022-09-30T19:20:41;100224.20;;;9.80
65765;BMP180;52915;53.718;19.946;2022-09-30T19:25:58;100214.00;;;9.70
65765;BMP180;52915;53.718;19.946;2022-09-30T19:31:26;100207.00;;;9.50
65765;BMP180;52915;53.718;19.946;2022-09-30T19:36:44;100208.00;;;9.24
65765;BMP180;52915;53.718;19.946;2022-09-30T19:41:58;100213.40;;;9.20
65765;BMP180;52915;53.718;19.946;2022-09-30T19:47:13;100212.80;;;9.40
65765;BMP180;52915;53.718;19.946;2022-09-30T19:52:28;100209.60;;;9.40
65765;BMP180;52915;53.718;19.946;2022-09-30T19:58:02;100209.40;;;9.20
65765;BMP180;52915;53.718;19.946;2022-09-30T20:03:16;100219.80;;;9.08
65765;BMP180;52915;53.718;19.946;2022-09-30T20:08:27;100211.40;;;9.10
65765;BMP180;52915;53.718;19.946;2022-09-30T20:13:54;100213.20;;;9.20
65765;BMP180;52915;53.718;19.946;2022-09-30T20:19:19;100217.80;;;9.20
65765;BMP180;52915;53.718;19.946;2022-09-30T20:24:36;100218.40;;;9.20
65765;BMP180;52915;53.718;19.946;2022-09-30T20:29:49;100215.00;;;9.00
65765;BMP180;52915;53.718;19.946;2022-09-30T20:34:57;100221.00;;;9.10
65765;BMP180;52915;53.718;19.946;2022-09-30T20:40:03;100209.60;;;9.20
65765;BMP180;52915;53.718;19.946;2022-09-30T20:45:11;100208.40;;;9.20
65765;BMP180;52915;53.718;19.946;2022-09-30T20:50:25;100212.40;;;9.00
65765;BMP180;52915;53.718;19.946;2022-09-30T20:55:42;100215.80;;;8.80
65765;BMP180;52915;53.718;19.946;2022-09-30T21:00:51;100208.60;;;8.80
65765;BMP180;52915;53.718;19.946;2022-09-30T21:06:08;100207.60;;;8.90
65765;BMP180;52915;53.718;19.946;2022-09-30T21:11:28;100211.20;;;8.96
65765;BMP180;52915;53.718;19.946;2022-09-30T21:16:38;100204.80;;;8.80
65765;BMP180;52915;53.718;19.946;2022-09-30T21:21:50;100199.40;;;8.70
65765;BMP180;52915;53.718;19.946;2022-09-30T21:27:03;100193.60;;;8.70
65765;BMP180;52915;53.718;19.946;2022-09-30T21:32:16;100201.20;;;8.80
65765;BMP180;52915;53.718;19.946;2022-09-30T21:37:34;100206.00;;;8.80
65765;BMP180;52915;53.718;19.946;2022-09-30T21:42:54;100197.20;;;8.64
65765;BMP180;52915;53.718;19.946;2022-09-30T21:48:10;100199.40;;;8.54
65765;BMP180;52915;53.718;19.946;2022-09-30T21:53:25;100196.00;;;8.60
65765;BMP180;52915;53.718;19.946;2022-09-30T21:58:39;100200.00;;;8.70
65765;BMP180;52915;53.718;19.946;2022-09-30T22:03:49;100207.20;;;8.70
65765;BMP180;52915;53.718;19.946;2022-09-30T22:08:54;100211.20;;;8.60
65765;BMP180;52915;53.718;19.946;2022-09-30T22:13:59;100205.80;;;8.50
65765;BMP180;52915;53.718;19.946;2022-09-30T22:19:05;100206.40;;;8.50
65765;BMP180;52915;53.718;19.946;2022-09-30T22:24:10;100204.20;;;8.60
65765;BMP180;52915;53.718;19.946;2022-09-30T22:29:14;100200.80;;;8.70
65765;BMP180;52915;53.718;19.946;2022-09-30T22:34:19;100199.60;;;8.60
65765;BMP180;52915;53.718;19.946;2022-09-30T22:39:41;100201.40;;;8.40
65765;BMP180;52915;53.718;19.946;2022-09-30T22:44:45;100197.40;;;8.30
65765;BMP180;52915;53.718;19.946;2022-09-30T22:49:50;100188.60;;;8.28
65765;BMP180;52915;53.718;19.946;2022-09-30T22:54:54;100190.00;;;8.30
65765;BMP180;52915;53.718;19.946;2022-09-30T22:59:58;100187.00;;;8.38
65765;BMP180;52915;53.718;19.946;2022-09-30T23:05:03;100191.80;;;8.40
65765;BMP180;52915;53.718;19.946;2022-09-30T23:10:08;100192.00;;;8.42
65765;BMP180;52915;53.718;19.946;2022-09-30T23:15:12;100193.40;;;8.36
65765;BMP180;52915;53.718;19.946;2022-09-30T23:20:16;100184.80;;;8.20
65765;BMP180;52915;53.718;19.946;2022-09-30T23:25:20;100187.00;;;8.10
65765;BMP180;52915;53.718;19.946;2022-09-30T23:30:24;100182.20;;;8.20
65765;BMP180;52915;53.718;19.946;2022-09-30T23:35:29;100181.00;;;8.40
65765;BMP180;52915;53.718;19.946;2022-09-30T23:40:33;100182.80;;;8.30
65765;BMP180;52915;53.718;19.946;2022-09-30T23:45:37;100182.80;;;8.20
65765;BMP180;52915;53.718;19.946;2022-09-30T23:50:41;100191.00;;;8.20
65765;BMP180;52915;53.718;19.946;2022-09-30T23:56:01;100191.00;;;8.34
